Nashwauk, Minnesota
Current Conditions -  °F | °C
As of 6:53 PM on Wednesday 26 Nov 2014 (Local Time) from KHIB Reporting Station
Clear Clear  
Wind Chill: -12°   Ceiling: Unl
Heat Index:   Visibility: 10mi
Dew Point: -6°   Wind: 12mph
Humidity: 64%   Direction: 350°N
Pressure: 30.33"   Gusts: NA
Location:  47.38°N, 93.17°W
Report Text: KHIB 270053Z AUTO 35010KT 10SM CLR M16/M21 A3033 RMK AO2 SLP306 T11561211
Loading
Personal Weather Stations






























Interactive Weather Map New forecast layout! Learn more

10-Day Weather Forecast

Advertisements
Track Severe Weather on mobile